createdAt,value
2023-03-13T00:02:48.170Z,10.68
2023-03-13T00:06:51.312Z,9.38
2023-03-13T00:10:54.357Z,8.98
2023-03-13T00:14:58.817Z,12.00
2023-03-13T00:19:01.836Z,13.98
2023-03-13T00:23:06.139Z,14.18
2023-03-13T00:27:11.032Z,10.10
2023-03-13T00:31:17.908Z,16.40
2023-03-13T00:35:22.031Z,11.77
2023-03-13T00:39:27.017Z,11.77
2023-03-13T00:43:30.488Z,18.00
2023-03-13T00:47:34.924Z,11.07
2023-03-13T00:51:40.028Z,7.43
2023-03-13T00:55:53.627Z,11.27
2023-03-13T00:59:59.230Z,10.47
2023-03-13T01:04:10.925Z,14.13
2023-03-13T01:08:13.895Z,10.73
2023-03-13T01:12:21.997Z,9.82
2023-03-13T01:16:26.271Z,10.47
2023-03-13T01:20:34.994Z,11.20
2023-03-13T01:24:41.788Z,10.27
2023-03-13T01:28:44.837Z,7.30
2023-03-13T01:32:52.055Z,7.03
2023-03-13T01:36:57.655Z,12.83
2023-03-13T01:41:05.086Z,8.38
2023-03-13T01:45:23.438Z,7.18
2023-03-13T01:49:33.578Z,7.77
2023-03-13T01:53:42.545Z,6.97
2023-03-13T01:57:50.585Z,7.50
2023-03-13T02:01:59.073Z,12.23
2023-03-13T02:06:16.295Z,6.87
2023-03-13T02:10:22.260Z,10.80
2023-03-13T02:14:29.207Z,7.05
2023-03-13T02:18:32.260Z,10.20
2023-03-13T02:22:47.068Z,8.00
2023-03-13T02:26:53.702Z,8.30
2023-03-13T02:30:58.810Z,13.48
2023-03-13T02:35:07.705Z,5.95
2023-03-13T02:39:22.715Z,12.10
2023-03-13T02:43:31.732Z,7.87
2023-03-13T02:47:35.102Z,5.13
2023-03-13T02:51:46.210Z,7.23
2023-03-13T02:55:51.748Z,13.17
2023-03-13T02:59:58.727Z,10.23
2023-03-13T03:04:04.531Z,9.50
2023-03-13T03:08:10.408Z,6.67
2023-03-13T03:12:13.435Z,6.00
2023-03-13T03:16:19.896Z,12.17
2023-03-13T03:20:24.426Z,6.77
2023-03-13T03:24:27.620Z,11.00
2023-03-13T03:28:30.803Z,8.65
2023-03-13T03:32:35.653Z,12.03
2023-03-13T03:36:42.551Z,10.63
2023-03-13T03:40:47.678Z,9.70
2023-03-13T03:44:53.630Z,3.63
2023-03-13T03:49:04.021Z,6.47
2023-03-13T03:53:09.895Z,10.27
2023-03-13T03:57:13.156Z,3.40
2023-03-13T04:01:16.443Z,6.53
2023-03-13T04:05:21.414Z,7.43
2023-03-13T04:09:24.444Z,5.80
2023-03-13T04:13:27.443Z,8.27
2023-03-13T04:17:31.194Z,8.33
2023-03-13T04:21:39.732Z,5.95
2023-03-13T04:25:51.927Z,8.00
2023-03-13T04:29:54.928Z,4.53
2023-03-13T04:33:58.202Z,6.43
2023-03-13T04:38:04.626Z,8.90
2023-03-13T04:42:08.281Z,4.80
2023-03-13T04:46:13.165Z,4.23
2023-03-13T04:50:22.526Z,6.40
2023-03-13T04:54:29.708Z,11.03
2023-03-13T04:58:33.554Z,7.90
2023-03-13T05:02:41.782Z,5.67
2023-03-13T05:06:44.802Z,8.80
2023-03-13T05:10:51.273Z,8.23
2023-03-13T05:14:54.845Z,8.17
2023-03-13T05:18:58.156Z,12.83
2023-03-13T05:23:03.201Z,13.57
2023-03-13T05:27:13.530Z,8.73
2023-03-13T05:31:16.786Z,8.37
2023-03-13T05:35:19.867Z,8.53
2023-03-13T05:39:24.994Z,12.77
2023-03-13T05:43:34.940Z,14.53
2023-03-13T05:47:39.823Z,8.93
2023-03-13T05:51:48.033Z,11.43
2023-03-13T05:55:52.031Z,9.07
2023-03-13T05:59:59.662Z,10.60
2023-03-13T06:04:02.970Z,12.00
2023-03-13T06:08:08.981Z,10.97
2023-03-13T06:12:15.100Z,13.93
2023-03-13T06:16:19.609Z,11.23
2023-03-13T06:20:23.561Z,18.60
2023-03-13T06:24:26.585Z,16.07
2023-03-13T06:28:30.125Z,14.47
2023-03-13T06:32:34.807Z,12.77
2023-03-13T06:36:38.047Z,14.50
2023-03-13T06:40:43.459Z,18.93
2023-03-13T06:44:46.597Z,14.93
2023-03-13T06:48:52.790Z,13.90
2023-03-13T06:52:57.985Z,18.97
2023-03-13T06:57:00.972Z,23.17
2023-03-13T07:01:08.736Z,18.70
2023-03-13T07:05:14.835Z,29.00
2023-03-13T07:09:22.935Z,17.00
2023-03-13T07:13:26.029Z,23.40
2023-03-13T07:17:31.932Z,22.47
2023-03-13T07:21:39.224Z,26.60
2023-03-13T07:25:42.239Z,20.70
2023-03-13T07:29:48.127Z,20.97
2023-03-13T07:33:54.000Z,17.97
2023-03-13T07:38:01.069Z,17.73
2023-03-13T07:42:04.146Z,20.67
2023-03-13T07:46:09.561Z,16.87
2023-03-13T07:50:15.790Z,20.25
2023-03-13T07:54:20.430Z,16.23
2023-03-13T07:58:27.038Z,17.90
2023-03-13T08:02:31.602Z,13.67
2023-03-13T08:06:37.884Z,9.73
2023-03-13T08:10:42.419Z,10.60
2023-03-13T08:14:47.669Z,6.68
2023-03-13T08:18:54.198Z,6.88
2023-03-13T08:22:58.513Z,11.65
2023-03-13T08:27:05.365Z,6.83
2023-03-13T08:31:12.141Z,10.18
2023-03-13T08:35:15.268Z,10.97
2023-03-13T08:39:29.189Z,12.93
2023-03-13T08:43:35.012Z,7.75
2023-03-13T08:47:39.043Z,7.63
2023-03-13T08:51:50.885Z,7.00
2023-03-13T08:55:57.252Z,2.80
2023-03-13T09:00:02.138Z,3.97
2023-03-13T09:04:10.495Z,5.40
2023-03-13T09:08:14.716Z,4.97
2023-03-13T09:12:30.018Z,4.25
2023-03-13T09:16:37.094Z,1.88
2023-03-13T09:20:40.132Z,1.70
2023-03-13T09:24:46.039Z,2.90
2023-03-13T09:28:49.598Z,3.63
2023-03-13T09:32:55.795Z,4.57
2023-03-13T09:37:04.260Z,2.38
2023-03-13T09:41:23.617Z,6.47
2023-03-13T09:45:34.168Z,3.97
2023-03-13T09:49:42.705Z,2.97
2023-03-13T09:53:52.129Z,2.15
2023-03-13T09:57:58.364Z,6.88
2023-03-13T10:02:05.381Z,5.53
2023-03-13T10:10:56.973Z,9.02
2023-03-13T10:15:17.364Z,9.65
2023-03-13T10:19:28.343Z,4.72
2023-03-13T10:23:39.710Z,3.63
2023-03-13T10:27:50.996Z,2.47
2023-03-13T10:32:02.485Z,2.28
2023-03-13T10:36:12.802Z,5.65
2023-03-13T10:40:28.600Z,4.88
2023-03-13T10:44:34.568Z,1.88
2023-03-13T10:48:38.425Z,3.67
2023-03-13T10:52:47.694Z,2.00
2023-03-13T10:56:56.274Z,2.70
2023-03-13T11:01:20.355Z,1.52
2023-03-13T11:05:34.289Z,1.85
2023-03-13T11:09:38.347Z,1.40
2023-03-13T11:13:44.832Z,1.92
2023-03-13T11:17:56.204Z,2.00
2023-03-13T11:22:12.066Z,6.30
2023-03-13T11:26:27.127Z,1.83
2023-03-13T11:30:51.495Z,1.85
2023-03-13T11:34:59.578Z,1.50
2023-03-13T11:39:32.116Z,1.65
2023-03-13T11:43:51.071Z,1.73
2023-03-13T11:48:02.058Z,2.03
2023-03-13T11:52:23.228Z,1.40
2023-03-13T11:56:33.506Z,1.30
2023-03-13T12:00:41.243Z,1.83
2023-03-13T12:04:48.734Z,1.92
2023-03-13T12:08:56.375Z,1.52
2023-03-13T12:13:07.611Z,2.42
2023-03-13T12:17:19.225Z,1.50
2023-03-13T12:21:32.233Z,1.40
2023-03-13T12:25:39.931Z,1.65
2023-03-13T12:29:50.128Z,1.48
2023-03-13T12:34:01.196Z,3.92
2023-03-13T12:38:14.833Z,2.10
2023-03-13T12:42:31.413Z,1.80
2023-03-13T12:46:42.876Z,3.30
2023-03-13T12:50:59.497Z,1.95
2023-03-13T12:55:36.652Z,1.90
2023-03-13T12:59:42.234Z,1.70
2023-03-13T13:03:53.516Z,3.30
2023-03-13T13:07:57.638Z,2.13
2023-03-13T13:12:07.086Z,1.70
2023-03-13T13:16:18.688Z,1.92
2023-03-13T13:20:40.147Z,1.80
2023-03-13T13:24:50.802Z,3.83
2023-03-13T13:28:56.021Z,2.35
2023-03-13T13:33:37.212Z,7.10
2023-03-13T13:37:42.012Z,1.95
2023-03-13T13:41:48.031Z,2.47
2023-03-13T13:46:03.118Z,5.10
2023-03-13T13:50:18.914Z,1.70
2023-03-13T13:54:40.841Z,6.18
2023-03-13T13:58:46.824Z,13.15
2023-03-13T14:02:56.334Z,8.32
2023-03-13T14:07:03.770Z,2.65
2023-03-13T14:11:16.286Z,4.57
2023-03-13T14:15:21.997Z,6.32
2023-03-13T14:19:31.656Z,8.43
2023-03-13T14:23:42.701Z,23.42
2023-03-13T14:27:47.477Z,8.73
2023-03-13T14:31:54.960Z,7.97
2023-03-13T14:36:02.508Z,2.90
2023-03-13T14:40:10.788Z,3.05
2023-03-13T14:44:25.738Z,3.45
2023-03-13T14:48:33.182Z,3.28
2023-03-13T14:52:39.876Z,4.03
2023-03-13T14:56:43.889Z,4.72
2023-03-13T15:00:48.080Z,2.35
2023-03-13T15:05:01.267Z,2.00
2023-03-13T15:09:21.306Z,2.60
2023-03-13T15:13:26.217Z,3.13
2023-03-13T15:17:29.921Z,2.67
2023-03-13T15:21:35.187Z,2.20
2023-03-13T15:25:41.162Z,2.58
2023-03-13T15:29:45.058Z,2.03
2023-03-13T15:33:49.185Z,1.50
2023-03-13T15:37:54.231Z,1.55
2023-03-13T15:42:02.271Z,3.63
2023-03-13T15:46:05.964Z,2.90
2023-03-13T15:50:15.868Z,5.05
2023-03-13T15:54:18.893Z,5.05
2023-03-13T15:58:24.931Z,3.63
2023-03-13T16:02:31.652Z,5.82
2023-03-13T16:06:34.694Z,3.38
2023-03-13T16:10:37.802Z,3.97
2023-03-13T16:14:42.803Z,4.55
2023-03-13T16:18:45.871Z,3.90
2023-03-13T16:22:53.336Z,3.78
2023-03-13T16:26:56.760Z,5.20
2023-03-13T16:31:04.720Z,7.60
2023-03-13T16:35:13.222Z,7.70
2023-03-13T16:39:17.704Z,6.90
2023-03-13T16:43:21.108Z,18.20
2023-03-13T16:47:29.490Z,21.20
2023-03-13T16:51:32.863Z,26.38
2023-03-13T16:55:37.372Z,54.65
2023-03-13T16:59:46.492Z,36.13
2023-03-13T17:03:51.024Z,48.00
2023-03-13T17:07:57.074Z,15.73
2023-03-13T17:12:00.138Z,13.93
2023-03-13T17:16:03.248Z,9.00
2023-03-13T17:20:10.164Z,6.20
2023-03-13T17:24:13.169Z,7.95
2023-03-13T17:28:16.555Z,7.25
2023-03-13T17:32:21.895Z,7.45
2023-03-13T17:36:28.368Z,35.00
2023-03-13T17:40:32.682Z,21.33
2023-03-13T17:44:36.090Z,29.90
2023-03-13T17:48:44.299Z,8.88
2023-03-13T17:52:48.903Z,15.50
2023-03-13T17:56:53.617Z,8.55
2023-03-13T18:00:56.822Z,5.97
2023-03-13T18:05:06.100Z,9.48
2023-03-13T18:09:16.171Z,10.98
2023-03-13T18:13:23.750Z,12.43
2023-03-13T18:17:29.416Z,35.42
2023-03-13T18:21:32.856Z,13.73
2023-03-13T18:25:44.902Z,10.48
2023-03-13T18:29:50.822Z,12.68
2023-03-13T18:33:57.381Z,10.48
2023-03-13T18:38:00.582Z,7.55
2023-03-13T18:42:08.204Z,7.50
2023-03-13T18:46:18.674Z,7.40
2023-03-13T18:50:26.504Z,7.45
2023-03-13T18:54:32.543Z,7.57
2023-03-13T18:58:39.513Z,9.15
2023-03-13T19:02:43.677Z,9.93
2023-03-13T19:06:50.900Z,5.88
2023-03-13T19:10:54.028Z,5.97
2023-03-13T19:14:58.697Z,6.13
2023-03-13T19:19:02.261Z,8.20
2023-03-13T19:23:05.316Z,6.72
2023-03-13T19:27:08.549Z,16.30
2023-03-13T19:31:18.691Z,7.88
2023-03-13T19:35:24.058Z,11.27
2023-03-13T19:39:30.242Z,9.40
2023-03-13T19:43:35.463Z,7.95
2023-03-13T19:47:40.169Z,6.93
2023-03-13T19:51:43.575Z,5.95
2023-03-13T19:55:46.608Z,11.00
2023-03-13T19:59:52.598Z,6.93
2023-03-13T20:03:58.968Z,8.27
2023-03-13T20:08:01.996Z,6.97
2023-03-13T20:12:11.125Z,6.38
2023-03-13T20:16:14.678Z,8.77
2023-03-13T20:20:19.724Z,7.03
2023-03-13T20:24:23.122Z,10.23
2023-03-13T20:28:29.090Z,11.20
2023-03-13T20:32:32.304Z,8.32
2023-03-13T20:36:36.768Z,6.78
2023-03-13T20:40:39.882Z,9.10
2023-03-13T20:44:45.825Z,6.20
2023-03-13T20:49:14.888Z,7.68
2023-03-13T20:53:22.128Z,7.50
2023-03-13T20:57:30.297Z,5.50
2023-03-13T21:01:33.453Z,7.97
2023-03-13T21:05:39.648Z,8.40
2023-03-13T21:09:45.363Z,4.75
2023-03-13T21:13:49.067Z,6.65
2023-03-13T21:17:53.978Z,3.58
2023-03-13T21:21:58.936Z,4.15
2023-03-13T21:26:03.608Z,3.85
2023-03-13T21:30:11.703Z,3.55
2023-03-13T21:34:14.907Z,4.43
2023-03-13T21:38:20.966Z,6.18
2023-03-13T21:42:25.788Z,7.45
2023-03-13T21:46:33.053Z,6.32
2023-03-13T21:50:36.361Z,4.30
2023-03-13T21:54:44.754Z,5.53
2023-03-13T21:58:51.699Z,4.43
2023-03-13T22:02:54.940Z,3.47
2023-03-13T22:06:58.524Z,7.05
2023-03-13T22:11:05.686Z,2.70
2023-03-13T22:15:12.406Z,5.35
2023-03-13T22:19:24.165Z,2.22
2023-03-13T22:23:27.643Z,4.82
2023-03-13T22:27:33.136Z,3.30
2023-03-13T22:31:40.035Z,3.13
2023-03-13T22:35:48.138Z,2.30
2023-03-13T22:39:59.006Z,1.77
2023-03-13T22:44:04.932Z,1.30
2023-03-13T22:48:09.586Z,1.80
2023-03-13T22:52:12.740Z,1.85
2023-03-13T22:56:15.802Z,3.15
2023-03-13T23:00:19.584Z,1.52
2023-03-13T23:04:28.402Z,1.73
2023-03-13T23:08:32.604Z,1.40
2023-03-13T23:12:35.728Z,1.55
2023-03-13T23:16:38.889Z,2.30
2023-03-13T23:20:46.242Z,2.03
2023-03-13T23:24:49.302Z,1.40
2023-03-13T23:28:53.875Z,2.45
2023-03-13T23:33:00.144Z,2.60
2023-03-13T23:37:06.944Z,6.28
2023-03-13T23:41:11.502Z,1.13
2023-03-13T23:45:15.206Z,1.70
2023-03-13T23:49:18.465Z,1.50
2023-03-13T23:53:22.963Z,1.20
2023-03-13T23:57:26.113Z,1.90
